sensor_id;sensor_type;location;lat;lon;timestamp;pressure;altitude;pressure_sealevel;temperature;humidity
596;BME280;19946;49.306;11.350;2022-12-07T00:01:38;96267.84;;;0.37;100.00
596;BME280;19946;49.306;11.350;2022-12-07T00:04:39;96284.91;;;0.35;100.00
596;BME280;19946;49.306;11.350;2022-12-07T00:07:39;96265.03;;;0.43;100.00
596;BME280;19946;49.306;11.350;2022-12-07T00:10:42;96271.53;;;0.31;100.00
596;BME280;19946;49.306;11.350;2022-12-07T00:13:43;96267.91;;;0.35;100.00
596;BME280;19946;49.306;11.350;2022-12-07T00:16:44;96262.16;;;0.32;100.00
596;BME280;19946;49.306;11.350;2022-12-07T00:19:57;96255.25;;;0.34;100.00
596;BME280;19946;49.306;11.350;2022-12-07T00:23:02;96222.50;;;0.09;100.00
596;BME280;19946;49.306;11.350;2022-12-07T00:26:07;96245.63;;;0.22;100.00
596;BME280;19946;49.306;11.350;2022-12-07T00:29:16;96206.72;;;0.01;100.00
596;BME280;19946;49.306;11.350;2022-12-07T00:32:18;96255.09;;;0.20;100.00
596;BME280;19946;49.306;11.350;2022-12-07T00:35:19;96251.16;;;0.13;100.00
596;BME280;19946;49.306;11.350;2022-12-07T00:38:19;96260.66;;;0.28;100.00
596;BME280;19946;49.306;11.350;2022-12-07T00:41:22;96264.72;;;0.32;100.00
596;BME280;19946;49.306;11.350;2022-12-07T00:44:25;96258.47;;;0.20;100.00
596;BME280;19946;49.306;11.350;2022-12-07T00:47:25;96257.13;;;0.30;100.00
596;BME280;19946;49.306;11.350;2022-12-07T00:50:35;96153.84;;;-0.28;100.00
596;BME280;19946;49.306;11.350;2022-12-07T00:53:36;96155.84;;;-0.35;100.00
596;BME280;19946;49.306;11.350;2022-12-07T00:56:37;96256.13;;;0.16;100.00
596;BME280;19946;49.306;11.350;2022-12-07T00:59:38;96199.47;;;-0.07;100.00
596;BME280;19946;49.306;11.350;2022-12-07T01:02:38;96217.59;;;0.05;100.00
596;BME280;19946;49.306;11.350;2022-12-07T01:05:40;96268.66;;;0.20;100.00
596;BME280;19946;49.306;11.350;2022-12-07T01:08:40;96193.28;;;-0.20;100.00
596;BME280;19946;49.306;11.350;2022-12-07T01:11:41;96272.63;;;0.26;100.00
596;BME280;19946;49.306;11.350;2022-12-07T01:14:41;96247.63;;;-0.02;100.00
596;BME280;19946;49.306;11.350;2022-12-07T01:17:42;96255.09;;;0.20;100.00
596;BME280;19946;49.306;11.350;2022-12-07T01:20:42;96239.50;;;-0.10;100.00
596;BME280;19946;49.306;11.350;2022-12-07T01:23:43;96186.50;;;-0.38;100.00
596;BME280;19946;49.306;11.350;2022-12-07T01:26:45;96257.81;;;-0.02;100.00
596;BME280;19946;49.306;11.350;2022-12-07T01:29:45;96243.75;;;-0.11;100.00
596;BME280;19946;49.306;11.350;2022-12-07T01:32:46;96247.22;;;-0.12;100.00
596;BME280;19946;49.306;11.350;2022-12-07T01:35:46;96174.78;;;-0.59;100.00
596;BME280;19946;49.306;11.350;2022-12-07T01:38:48;96225.78;;;-0.25;100.00
596;BME280;19946;49.306;11.350;2022-12-07T01:41:49;96255.53;;;-0.08;100.00
596;BME280;19946;49.306;11.350;2022-12-07T01:48:22;96230.69;;;-0.03;100.00
596;BME280;19946;49.306;11.350;2022-12-07T01:51:25;96258.28;;;0.06;100.00
596;BME280;19946;49.306;11.350;2022-12-07T01:54:26;96274.63;;;0.19;100.00
596;BME280;19946;49.306;11.350;2022-12-07T01:57:27;96199.44;;;-0.24;100.00
596;BME280;19946;49.306;11.350;2022-12-07T02:00:28;96253.38;;;0.02;100.00
596;BME280;19946;49.306;11.350;2022-12-07T02:03:41;96249.28;;;-0.01;100.00
596;BME280;19946;49.306;11.350;2022-12-07T02:06:42;96205.41;;;-0.25;100.00
596;BME280;19946;49.306;11.350;2022-12-07T02:09:43;96228.34;;;-0.08;100.00
596;BME280;19946;49.306;11.350;2022-12-07T02:12:58;96245.34;;;-0.08;100.00
596;BME280;19946;49.306;11.350;2022-12-07T02:29:42;96179.56;;;-0.34;100.00
596;BME280;19946;49.306;11.350;2022-12-07T02:33:05;96258.94;;;0.28;100.00
596;BME280;19946;49.306;11.350;2022-12-07T02:36:16;96206.06;;;-0.03;100.00
596;BME280;19946;49.306;11.350;2022-12-07T02:39:25;96243.59;;;0.11;100.00
596;BME280;19946;49.306;11.350;2022-12-07T02:42:37;96220.22;;;0.03;100.00
596;BME280;19946;49.306;11.350;2022-12-07T02:45:41;96146.50;;;-0.53;100.00
596;BME280;19946;49.306;11.350;2022-12-07T02:48:42;96245.91;;;-0.02;100.00
596;BME280;19946;49.306;11.350;2022-12-07T02:51:45;96205.81;;;-0.15;100.00
596;BME280;19946;49.306;11.350;2022-12-07T02:54:46;96232.34;;;-0.02;100.00
596;BME280;19946;49.306;11.350;2022-12-07T03:01:09;96212.31;;;-0.10;100.00
596;BME280;19946;49.306;11.350;2022-12-07T03:08:26;96226.44;;;-0.03;100.00
596;BME280;19946;49.306;11.350;2022-12-07T03:14:41;96234.97;;;-0.04;100.00
596;BME280;19946;49.306;11.350;2022-12-07T03:17:47;96157.00;;;-0.42;100.00
596;BME280;19946;49.306;11.350;2022-12-07T03:20:51;96200.34;;;-0.08;100.00
596;BME280;19946;49.306;11.350;2022-12-07T03:23:56;96227.34;;;0.14;100.00
596;BME280;19946;49.306;11.350;2022-12-07T03:27:03;96182.91;;;-0.15;100.00
596;BME280;19946;49.306;11.350;2022-12-07T03:30:08;96152.69;;;-0.40;100.00
596;BME280;19946;49.306;11.350;2022-12-07T03:33:33;96197.94;;;-0.11;100.00
596;BME280;19946;49.306;11.350;2022-12-07T03:36:43;96192.44;;;-0.02;100.00
596;BME280;19946;49.306;11.350;2022-12-07T03:39:59;96211.41;;;0.10;100.00
596;BME280;19946;49.306;11.350;2022-12-07T03:43:02;96229.25;;;0.10;100.00
596;BME280;19946;49.306;11.350;2022-12-07T03:46:14;96161.09;;;-0.21;100.00
596;BME280;19946;49.306;11.350;2022-12-07T03:49:28;96157.53;;;-0.17;100.00
596;BME280;19946;49.306;11.350;2022-12-07T03:52:36;96195.38;;;-0.28;100.00
596;BME280;19946;49.306;11.350;2022-12-07T03:55:42;96119.88;;;-0.82;100.00
596;BME280;19946;49.306;11.350;2022-12-07T03:58:44;96141.50;;;-0.74;100.00
596;BME280;19946;49.306;11.350;2022-12-07T04:01:52;96211.94;;;-0.19;100.00
596;BME280;19946;49.306;11.350;2022-12-07T04:04:53;96185.50;;;-0.34;100.00
596;BME280;19946;49.306;11.350;2022-12-07T04:07:53;96201.97;;;-0.43;100.00
596;BME280;19946;49.306;11.350;2022-12-07T04:10:54;96188.53;;;-0.45;100.00
596;BME280;19946;49.306;11.350;2022-12-07T04:13:54;96189.66;;;-0.52;100.00
596;BME280;19946;49.306;11.350;2022-12-07T04:17:13;96193.75;;;-0.48;100.00
596;BME280;19946;49.306;11.350;2022-12-07T04:20:14;96164.44;;;-0.75;100.00
596;BME280;19946;49.306;11.350;2022-12-07T04:23:14;96175.25;;;-0.70;100.00
596;BME280;19946;49.306;11.350;2022-12-07T04:26:15;96167.56;;;-0.87;100.00
596;BME280;19946;49.306;11.350;2022-12-07T04:29:16;96170.44;;;-0.76;100.00
596;BME280;19946;49.306;11.350;2022-12-07T04:32:16;96172.53;;;-0.86;100.00
596;BME280;19946;49.306;11.350;2022-12-07T04:35:17;96160.88;;;-0.90;100.00
596;BME280;19946;49.306;11.350;2022-12-07T04:38:17;96177.72;;;-0.87;100.00
596;BME280;19946;49.306;11.350;2022-12-07T04:41:17;96127.38;;;-1.18;100.00
596;BME280;19946;49.306;11.350;2022-12-07T04:44:18;96096.69;;;-1.32;100.00
596;BME280;19946;49.306;11.350;2022-12-07T04:47:20;96140.78;;;-1.15;100.00
596;BME280;19946;49.306;11.350;2022-12-07T04:50:21;96183.06;;;-0.93;100.00
596;BME280;19946;49.306;11.350;2022-12-07T04:53:21;96170.00;;;-1.04;100.00
596;BME280;19946;49.306;11.350;2022-12-07T04:56:23;96170.22;;;-1.09;100.00
596;BME280;19946;49.306;11.350;2022-12-07T04:59:23;96094.09;;;-1.51;100.00
596;BME280;19946;49.306;11.350;2022-12-07T05:02:24;96192.63;;;-0.98;100.00
596;BME280;19946;49.306;11.350;2022-12-07T05:05:24;96198.53;;;-0.98;100.00
596;BME280;19946;49.306;11.350;2022-12-07T05:08:25;96208.81;;;-1.01;100.00
596;BME280;19946;49.306;11.350;2022-12-07T05:11:25;96176.88;;;-1.27;100.00
596;BME280;19946;49.306;11.350;2022-12-07T05:14:38;96196.38;;;-1.27;100.00
596;BME280;19946;49.306;11.350;2022-12-07T05:17:38;96203.94;;;-1.26;100.00
596;BME280;19946;49.306;11.350;2022-12-07T05:20:39;96170.88;;;-1.44;100.00
596;BME280;19946;49.306;11.350;2022-12-07T05:23:40;96212.66;;;-1.11;100.00
596;BME280;19946;49.306;11.350;2022-12-07T05:26:40;96170.47;;;-1.35;100.00
596;BME280;19946;49.306;11.350;2022-12-07T05:29:41;96199.69;;;-1.25;100.00
596;BME280;19946;49.306;11.350;2022-12-07T05:32:41;96184.50;;;-1.27;100.00
596;BME280;19946;49.306;11.350;2022-12-07T05:35:42;96197.97;;;-1.25;100.00
596;BME280;19946;49.306;11.350;2022-12-07T05:38:42;96200.50;;;-1.25;100.00
596;BME280;19946;49.306;11.350;2022-12-07T05:41:43;96185.34;;;-1.47;100.00
596;BME280;19946;49.306;11.350;2022-12-07T05:45:02;96206.69;;;-1.30;100.00
596;BME280;19946;49.306;11.350;2022-12-07T05:48:03;96214.22;;;-1.29;100.00
596;BME280;19946;49.306;11.350;2022-12-07T05:51:03;96180.91;;;-1.41;100.00
596;BME280;19946;49.306;11.350;2022-12-07T05:54:03;96177.28;;;-1.36;100.00
596;BME280;19946;49.306;11.350;2022-12-07T05:57:04;96215.38;;;-1.16;100.00
596;BME280;19946;49.306;11.350;2022-12-07T06:00:05;96192.41;;;-1.33;100.00
596;BME280;19946;49.306;11.350;2022-12-07T06:03:12;96222.31;;;-1.19;100.00
596;BME280;19946;49.306;11.350;2022-12-07T06:06:12;96192.53;;;-1.36;100.00
596;BME280;19946;49.306;11.350;2022-12-07T06:09:13;96213.41;;;-1.09;100.00
596;BME280;19946;49.306;11.350;2022-12-07T06:12:14;96206.47;;;-1.26;100.00
596;BME280;19946;49.306;11.350;2022-12-07T06:15:36;96159.69;;;-1.40;100.00
596;BME280;19946;49.306;11.350;2022-12-07T06:18:36;96221.16;;;-1.12;100.00
596;BME280;19946;49.306;11.350;2022-12-07T06:21:37;96223.75;;;-1.14;100.00
596;BME280;19946;49.306;11.350;2022-12-07T06:24:38;96176.56;;;-1.39;100.00
596;BME280;19946;49.306;11.350;2022-12-07T06:27:38;96183.25;;;-1.37;100.00
596;BME280;19946;49.306;11.350;2022-12-07T06:30:39;96207.19;;;-1.22;100.00
596;BME280;19946;49.306;11.350;2022-12-07T06:33:40;96222.09;;;-1.15;100.00
596;BME280;19946;49.306;11.350;2022-12-07T06:36:41;96183.75;;;-1.29;100.00
596;BME280;19946;49.306;11.350;2022-12-07T06:39:42;96202.78;;;-1.19;100.00
596;BME280;19946;49.306;11.350;2022-12-07T06:42:43;96201.91;;;-1.18;100.00
596;BME280;19946;49.306;11.350;2022-12-07T06:45:44;96213.03;;;-1.20;100.00
596;BME280;19946;49.306;11.350;2022-12-07T06:48:44;96207.13;;;-1.21;100.00
596;BME280;19946;49.306;11.350;2022-12-07T06:51:48;96187.31;;;-1.33;100.00
596;BME280;19946;49.306;11.350;2022-12-07T06:54:48;96209.84;;;-1.25;100.00
596;BME280;19946;49.306;11.350;2022-12-07T06:57:49;96227.13;;;-1.13;100.00
596;BME280;19946;49.306;11.350;2022-12-07T07:00:50;96183.31;;;-1.38;100.00
596;BME280;19946;49.306;11.350;2022-12-07T07:03:53;96213.97;;;-1.23;100.00
596;BME280;19946;49.306;11.350;2022-12-07T07:06:56;96170.22;;;-1.50;100.00
596;BME280;19946;49.306;11.350;2022-12-07T07:09:57;96184.06;;;-1.36;100.00
596;BME280;19946;49.306;11.350;2022-12-07T07:12:58;96158.41;;;-1.51;100.00
596;BME280;19946;49.306;11.350;2022-12-07T07:16:00;96174.03;;;-1.39;100.00
596;BME280;19946;49.306;11.350;2022-12-07T07:19:00;96156.72;;;-1.50;100.00
596;BME280;19946;49.306;11.350;2022-12-07T07:22:02;96236.13;;;-1.06;100.00
596;BME280;19946;49.306;11.350;2022-12-07T07:25:03;96150.41;;;-1.62;100.00
596;BME280;19946;49.306;11.350;2022-12-07T07:28:04;96190.69;;;-1.32;100.00
596;BME280;19946;49.306;11.350;2022-12-07T07:31:05;96177.78;;;-1.28;100.00
596;BME280;19946;49.306;11.350;2022-12-07T07:34:06;96239.94;;;-0.96;100.00
596;BME280;19946;49.306;11.350;2022-12-07T07:37:08;96189.47;;;-1.24;100.00
596;BME280;19946;49.306;11.350;2022-12-07T07:40:09;96221.28;;;-1.15;100.00
596;BME280;19946;49.306;11.350;2022-12-07T07:43:15;96215.63;;;-1.01;100.00
596;BME280;19946;49.306;11.350;2022-12-07T07:46:15;96231.22;;;-0.90;100.00
596;BME280;19946;49.306;11.350;2022-12-07T07:49:16;96224.06;;;-1.01;100.00
596;BME280;19946;49.306;11.350;2022-12-07T07:52:16;96216.94;;;-0.93;100.00
596;BME280;19946;49.306;11.350;2022-12-07T07:55:18;96226.22;;;-0.92;100.00
596;BME280;19946;49.306;11.350;2022-12-07T07:58:20;96166.66;;;-1.25;100.00
596;BME280;19946;49.306;11.350;2022-12-07T08:01:21;96228.63;;;-0.89;100.00
596;BME280;19946;49.306;11.350;2022-12-07T08:04:21;96158.09;;;-1.23;100.00
596;BME280;19946;49.306;11.350;2022-12-07T08:07:22;96227.53;;;-0.83;100.00
596;BME280;19946;49.306;11.350;2022-12-07T08:10:22;96237.94;;;-0.69;100.00
596;BME280;19946;49.306;11.350;2022-12-07T08:13:24;96148.75;;;-1.22;100.00
596;BME280;19946;49.306;11.350;2022-12-07T08:16:24;96191.63;;;-0.96;100.00
596;BME280;19946;49.306;11.350;2022-12-07T08:19:26;96258.06;;;-0.64;100.00
596;BME280;19946;49.306;11.350;2022-12-07T08:22:29;96138.22;;;-1.33;100.00
596;BME280;19946;49.306;11.350;2022-12-07T08:25:31;96221.63;;;-0.84;100.00
596;BME280;19946;49.306;11.350;2022-12-07T08:28:32;96163.22;;;-1.24;100.00
596;BME280;19946;49.306;11.350;2022-12-07T08:31:32;96175.13;;;-1.06;100.00
596;BME280;19946;49.306;11.350;2022-12-07T08:34:33;96194.59;;;-0.86;100.00
596;BME280;19946;49.306;11.350;2022-12-07T08:37:34;96260.63;;;-0.46;100.00
596;BME280;19946;49.306;11.350;2022-12-07T08:40:34;96220.94;;;-0.68;100.00
596;BME280;19946;49.306;11.350;2022-12-07T08:43:36;96259.34;;;-0.35;100.00
596;BME280;19946;49.306;11.350;2022-12-07T08:46:39;96215.59;;;-0.62;100.00
596;BME280;19946;49.306;11.350;2022-12-07T08:49:46;96197.59;;;-0.77;100.00
596;BME280;19946;49.306;11.350;2022-12-07T08:52:50;96165.81;;;-1.05;100.00
596;BME280;19946;49.306;11.350;2022-12-07T08:55:53;96227.34;;;-0.60;100.00
596;BME280;19946;49.306;11.350;2022-12-07T08:58:53;96259.03;;;-0.29;100.00
596;BME280;19946;49.306;11.350;2022-12-07T09:01:54;96111.00;;;-1.11;100.00
596;BME280;19946;49.306;11.350;2022-12-07T09:04:55;96135.88;;;-0.99;100.00
596;BME280;19946;49.306;11.350;2022-12-07T09:07:59;96232.22;;;-0.18;100.00
596;BME280;19946;49.306;11.350;2022-12-07T09:11:00;96205.56;;;-0.47;100.00
596;BME280;19946;49.306;11.350;2022-12-07T09:14:00;96252.97;;;-0.08;100.00
596;BME280;19946;49.306;11.350;2022-12-07T09:17:08;96215.28;;;-0.19;100.00
596;BME280;19946;49.306;11.350;2022-12-07T09:20:09;96217.59;;;-0.13;100.00
596;BME280;19946;49.306;11.350;2022-12-07T09:23:09;96185.50;;;-0.34;100.00
596;BME280;19946;49.306;11.350;2022-12-07T09:26:10;96184.75;;;-0.19;100.00
596;BME280;19946;49.306;11.350;2022-12-07T09:29:10;96188.34;;;-0.42;100.00
596;BME280;19946;49.306;11.350;2022-12-07T09:32:11;96220.06;;;-0.11;100.00
596;BME280;19946;49.306;11.350;2022-12-07T09:35:11;96198.25;;;-0.17;100.00
596;BME280;19946;49.306;11.350;2022-12-07T09:38:12;96203.78;;;-0.09;100.00
596;BME280;19946;49.306;11.350;2022-12-07T09:41:12;96244.16;;;0.18;100.00
596;BME280;19946;49.306;11.350;2022-12-07T09:44:21;96226.50;;;-0.04;100.00
596;BME280;19946;49.306;11.350;2022-12-07T09:47:23;96183.88;;;-0.18;100.00
596;BME280;19946;49.306;11.350;2022-12-07T09:50:26;96239.66;;;0.23;100.00
596;BME280;19946;49.306;11.350;2022-12-07T09:53:33;96197.75;;;0.11;100.00
596;BME280;19946;49.306;11.350;2022-12-07T09:56:36;96200.25;;;0.13;100.00
596;BME280;19946;49.306;11.350;2022-12-07T09:59:36;96191.75;;;-0.05;100.00
596;BME280;19946;49.306;11.350;2022-12-07T10:02:38;96224.03;;;0.30;100.00
596;BME280;19946;49.306;11.350;2022-12-07T10:05:45;96209.84;;;0.25;100.00
596;BME280;19946;49.306;11.350;2022-12-07T10:08:46;96222.31;;;0.31;100.00
596;BME280;19946;49.306;11.350;2022-12-07T10:12:07;96234.53;;;0.59;100.00
596;BME280;19946;49.306;11.350;2022-12-07T10:15:11;96204.75;;;0.25;100.00
596;BME280;19946;49.306;11.350;2022-12-07T10:21:23;96161.09;;;-0.02;100.00
596;BME280;19946;49.306;11.350;2022-12-07T10:24:24;96220.72;;;0.46;100.00
596;BME280;19946;49.306;11.350;2022-12-07T10:27:31;96184.31;;;0.44;100.00
596;BME280;19946;49.306;11.350;2022-12-07T10:30:33;96157.34;;;0.40;100.00
596;BME280;19946;49.306;11.350;2022-12-07T10:33:44;96209.25;;;0.37;100.00
596;BME280;19946;49.306;11.350;2022-12-07T10:36:48;96189.34;;;0.28;100.00
596;BME280;19946;49.306;11.350;2022-12-07T10:39:54;96105.66;;;-0.14;100.00
596;BME280;19946;49.306;11.350;2022-12-07T10:46:19;96105.59;;;-0.13;100.00
596;BME280;19946;49.306;11.350;2022-12-07T10:52:58;96187.97;;;0.55;100.00
596;BME280;19946;49.306;11.350;2022-12-07T10:59:48;96192.94;;;0.76;100.00
596;BME280;19946;49.306;11.350;2022-12-07T11:06:30;96187.09;;;0.73;100.00
596;BME280;19946;49.306;11.350;2022-12-07T11:09:44;96144.66;;;0.72;100.00
596;BME280;19946;49.306;11.350;2022-12-07T11:16:13;96144.66;;;0.72;100.00
596;BME280;19946;49.306;11.350;2022-12-07T11:25:42;96132.31;;;0.65;100.00
596;BME280;19946;49.306;11.350;2022-12-07T11:32:50;96165.44;;;0.98;100.00
596;BME280;19946;49.306;11.350;2022-12-07T11:39:01;96169.28;;;0.89;100.00
596;BME280;19946;49.306;11.350;2022-12-07T11:42:14;96151.22;;;0.77;100.00
596;BME280;19946;49.306;11.350;2022-12-07T11:45:20;96141.41;;;0.86;100.00
596;BME280;19946;49.306;11.350;2022-12-07T11:48:33;96092.34;;;0.65;100.00
596;BME280;19946;49.306;11.350;2022-12-07T11:51:37;96120.69;;;0.92;100.00
596;BME280;19946;49.306;11.350;2022-12-07T11:54:41;96071.94;;;0.65;100.00
596;BME280;19946;49.306;11.350;2022-12-07T11:57:46;96120.34;;;0.83;100.00
596;BME280;19946;49.306;11.350;2022-12-07T12:00:52;96108.84;;;0.76;100.00
596;BME280;19946;49.306;11.350;2022-12-07T12:07:16;96083.84;;;0.98;100.00
596;BME280;19946;49.306;11.350;2022-12-07T12:10:26;96078.06;;;0.79;100.00
596;BME280;19946;49.306;11.350;2022-12-07T12:13:56;96059.75;;;0.88;100.00
596;BME280;19946;49.306;11.350;2022-12-07T12:17:28;96125.59;;;1.28;100.00
596;BME280;19946;49.306;11.350;2022-12-07T12:20:41;96085.09;;;1.06;100.00
596;BME280;19946;49.306;11.350;2022-12-07T12:23:50;96113.00;;;1.25;100.00
596;BME280;19946;49.306;11.350;2022-12-07T12:27:08;96135.47;;;1.34;100.00
596;BME280;19946;49.306;11.350;2022-12-07T12:33:29;96134.16;;;1.43;100.00
596;BME280;19946;49.306;11.350;2022-12-07T12:39:33;96118.84;;;1.59;100.00
596;BME280;19946;49.306;11.350;2022-12-07T12:42:44;96097.84;;;1.54;100.00
596;BME280;19946;49.306;11.350;2022-12-07T12:45:45;96099.34;;;1.58;100.00
596;BME280;19946;49.306;11.350;2022-12-07T12:48:45;96042.59;;;1.07;100.00
596;BME280;19946;49.306;11.350;2022-12-07T12:51:47;96116.38;;;1.41;100.00
596;BME280;19946;49.306;11.350;2022-12-07T13:04:49;96110.84;;;1.80;100.00
596;BME280;19946;49.306;11.350;2022-12-07T13:07:54;96056.03;;;1.56;100.00
596;BME280;19946;49.306;11.350;2022-12-07T13:11:17;96085.34;;;1.49;100.00
596;BME280;19946;49.306;11.350;2022-12-07T13:20:51;96056.69;;;1.44;100.00
596;BME280;19946;49.306;11.350;2022-12-07T13:23:57;96062.38;;;1.33;100.00
596;BME280;19946;49.306;11.350;2022-12-07T13:27:00;96071.69;;;1.50;100.00
596;BME280;19946;49.306;11.350;2022-12-07T13:30:01;96073.69;;;1.29;100.00
596;BME280;19946;49.306;11.350;2022-12-07T13:33:03;96078.44;;;1.35;100.00
596;BME280;19946;49.306;11.350;2022-12-07T13:36:15;96101.06;;;1.41;100.00
596;BME280;19946;49.306;11.350;2022-12-07T13:39:25;96098.09;;;1.33;100.00
596;BME280;19946;49.306;11.350;2022-12-07T13:42:32;96057.53;;;1.13;100.00
596;BME280;19946;49.306;11.350;2022-12-07T13:45:33;96090.13;;;1.39;100.00
596;BME280;19946;49.306;11.350;2022-12-07T13:48:49;96099.84;;;1.33;100.00
596;BME280;19946;49.306;11.350;2022-12-07T13:51:51;96066.59;;;1.03;100.00
596;BME280;19946;49.306;11.350;2022-12-07T13:58:05;96012.19;;;0.55;100.00
596;BME280;19946;49.306;11.350;2022-12-07T14:01:06;96102.06;;;1.23;100.00
596;BME280;19946;49.306;11.350;2022-12-07T14:04:17;96059.84;;;0.86;100.00
596;BME280;19946;49.306;11.350;2022-12-07T14:07:21;96109.03;;;1.20;100.00
596;BME280;19946;49.306;11.350;2022-12-07T14:13:37;96051.28;;;0.87;100.00
596;BME280;19946;49.306;11.350;2022-12-07T14:16:39;96047.19;;;0.85;100.00
596;BME280;19946;49.306;11.350;2022-12-07T14:19:50;96099.41;;;1.09;100.00
596;BME280;19946;49.306;11.350;2022-12-07T14:22:55;96100.56;;;1.35;100.00
596;BME280;19946;49.306;11.350;2022-12-07T14:26:10;96104.28;;;1.29;100.00
596;BME280;19946;49.306;11.350;2022-12-07T14:32:27;96065.84;;;0.85;100.00
596;BME280;19946;49.306;11.350;2022-12-07T14:35:30;96100.22;;;1.09;100.00
596;BME280;19946;49.306;11.350;2022-12-07T14:38:31;96017.22;;;0.72;100.00
596;BME280;19946;49.306;11.350;2022-12-07T14:41:31;96076.78;;;1.03;100.00
596;BME280;19946;49.306;11.350;2022-12-07T14:44:50;96009.81;;;0.68;100.00
596;BME280;19946;49.306;11.350;2022-12-07T14:47:51;96098.34;;;1.13;100.00
596;BME280;19946;49.306;11.350;2022-12-07T14:50:52;96065.69;;;1.04;100.00
596;BME280;19946;49.306;11.350;2022-12-07T14:53:53;96070.19;;;0.99;100.00
596;BME280;19946;49.306;11.350;2022-12-07T14:56:54;96073.03;;;0.77;100.00
596;BME280;19946;49.306;11.350;2022-12-07T14:59:54;96054.53;;;0.58;100.00
596;BME280;19946;49.306;11.350;2022-12-07T15:02:56;96063.94;;;0.73;100.00
596;BME280;19946;49.306;11.350;2022-12-07T15:05:57;96083.78;;;0.66;100.00
596;BME280;19946;49.306;11.350;2022-12-07T15:08:57;96073.59;;;0.66;100.00
596;BME280;19946;49.306;11.350;2022-12-07T15:11:58;96057.41;;;0.67;100.00
596;BME280;19946;49.306;11.350;2022-12-07T15:14:59;96095.84;;;0.80;100.00
596;BME280;19946;49.306;11.350;2022-12-07T15:18:01;96083.34;;;0.76;100.00
596;BME280;19946;49.306;11.350;2022-12-07T15:21:03;96081.38;;;0.81;100.00
596;BME280;19946;49.306;11.350;2022-12-07T15:24:04;96040.53;;;0.49;100.00
596;BME280;19946;49.306;11.350;2022-12-07T15:27:04;96050.72;;;0.49;100.00
596;BME280;19946;49.306;11.350;2022-12-07T15:30:06;96070.34;;;0.64;100.00
596;BME280;19946;49.306;11.350;2022-12-07T15:33:06;96079.03;;;0.76;100.00
596;BME280;19946;49.306;11.350;2022-12-07T15:36:07;96038.81;;;0.65;100.00
596;BME280;19946;49.306;11.350;2022-12-07T15:39:09;96047.06;;;0.70;100.00
596;BME280;19946;49.306;11.350;2022-12-07T15:42:09;96021.22;;;0.45;100.00
596;BME280;19946;49.306;11.350;2022-12-07T15:45:10;96034.94;;;0.43;100.00
596;BME280;19946;49.306;11.350;2022-12-07T15:48:10;96087.41;;;0.62;100.00
596;BME280;19946;49.306;11.350;2022-12-07T15:51:12;95997.19;;;0.00;100.00
596;BME280;19946;49.306;11.350;2022-12-07T15:54:36;96053.16;;;0.35;100.00
596;BME280;19946;49.306;11.350;2022-12-07T15:57:38;96066.84;;;0.50;100.00
596;BME280;19946;49.306;11.350;2022-12-07T16:00:38;96046.56;;;0.31;100.00
596;BME280;19946;49.306;11.350;2022-12-07T16:03:39;96033.63;;;0.18;100.00
596;BME280;19946;49.306;11.350;2022-12-07T16:06:40;96036.03;;;0.21;100.00
596;BME280;19946;49.306;11.350;2022-12-07T16:09:41;96058.03;;;0.40;100.00
596;BME280;19946;49.306;11.350;2022-12-07T16:12:42;96060.25;;;0.46;100.00
596;BME280;19946;49.306;11.350;2022-12-07T16:15:42;96011.19;;;0.09;100.00
596;BME280;19946;49.306;11.350;2022-12-07T16:18:45;96030.25;;;0.18;100.00
596;BME280;19946;49.306;11.350;2022-12-07T16:21:45;96043.34;;;0.27;100.00
596;BME280;19946;49.306;11.350;2022-12-07T16:24:46;96028.75;;;0.14;100.00
596;BME280;19946;49.306;11.350;2022-12-07T16:27:46;96057.94;;;0.41;100.00
596;BME280;19946;49.306;11.350;2022-12-07T16:30:47;96037.09;;;0.33;100.00
596;BME280;19946;49.306;11.350;2022-12-07T16:33:48;96049.13;;;0.31;100.00
596;BME280;19946;49.306;11.350;2022-12-07T16:36:49;96061.25;;;0.43;100.00
596;BME280;19946;49.306;11.350;2022-12-07T16:39:49;96022.38;;;0.22;100.00
596;BME280;19946;49.306;11.350;2022-12-07T16:42:50;96064.13;;;0.53;100.00
596;BME280;19946;49.306;11.350;2022-12-07T16:45:50;96030.91;;;0.39;100.00
596;BME280;19946;49.306;11.350;2022-12-07T16:48:51;96036.50;;;0.45;100.00
596;BME280;19946;49.306;11.350;2022-12-07T16:51:52;96022.50;;;0.36;100.00
596;BME280;19946;49.306;11.350;2022-12-07T16:54:52;96046.53;;;0.48;100.00
596;BME280;19946;49.306;11.350;2022-12-07T16:57:53;96028.34;;;0.39;100.00
596;BME280;19946;49.306;11.350;2022-12-07T17:00:53;96028.28;;;0.40;100.00
596;BME280;19946;49.306;11.350;2022-12-07T17:03:54;96033.66;;;0.34;100.00
596;BME280;19946;49.306;11.350;2022-12-07T17:06:55;96056.38;;;0.54;100.00
596;BME280;19946;49.306;11.350;2022-12-07T17:09:56;96021.34;;;0.26;100.00
596;BME280;19946;49.306;11.350;2022-12-07T17:12:56;96047.69;;;0.25;100.00
596;BME280;19946;49.306;11.350;2022-12-07T17:16:03;96057.66;;;0.30;100.00
596;BME280;19946;49.306;11.350;2022-12-07T17:19:05;96037.91;;;0.18;100.00
596;BME280;19946;49.306;11.350;2022-12-07T17:22:07;96048.66;;;0.23;100.00
596;BME280;19946;49.306;11.350;2022-12-07T17:25:07;96037.50;;;0.25;100.00
596;BME280;19946;49.306;11.350;2022-12-07T17:28:08;95997.19;;;0.00;100.00
596;BME280;19946;49.306;11.350;2022-12-07T17:31:10;96047.16;;;0.36;100.00
596;BME280;19946;49.306;11.350;2022-12-07T17:34:12;95942.72;;;-0.30;100.00
596;BME280;19946;49.306;11.350;2022-12-07T17:37:13;96013.91;;;0.22;100.00
596;BME280;19946;49.306;11.350;2022-12-07T17:40:14;95965.31;;;-0.07;100.00
596;BME280;19946;49.306;11.350;2022-12-07T17:43:15;96019.09;;;0.20;100.00
596;BME280;19946;49.306;11.350;2022-12-07T17:46:15;96029.94;;;0.41;100.00
596;BME280;19946;49.306;11.350;2022-12-07T17:49:16;95948.25;;;-0.05;100.00
596;BME280;19946;49.306;11.350;2022-12-07T17:52:16;96000.38;;;0.21;100.00
596;BME280;19946;49.306;11.350;2022-12-07T17:55:35;96030.19;;;0.52;100.00